sensor_id;sensor_type;location;lat;lon;timestamp;P1;durP1;ratioP1;P2;durP2;ratioP2
3095;SDS011;1558;42.700;23.360;2023-10-09T00:00:08;7.73;;;2.83;;
3095;SDS011;1558;42.700;23.360;2023-10-09T00:02:52;7.00;;;3.03;;
3095;SDS011;1558;42.700;23.360;2023-10-09T00:05:21;6.93;;;3.40;;
3095;SDS011;1558;42.700;23.360;2023-10-09T00:08:04;8.80;;;2.73;;
3095;SDS011;1558;42.700;23.360;2023-10-09T00:10:35;6.63;;;3.00;;
3095;SDS011;1558;42.700;23.360;2023-10-09T00:13:15;6.47;;;2.70;;
3095;SDS011;1558;42.700;23.360;2023-10-09T00:15:46;7.30;;;2.90;;
3095;SDS011;1558;42.700;23.360;2023-10-09T00:18:19;6.57;;;2.77;;
3095;SDS011;1558;42.700;23.360;2023-10-09T00:20:56;7.10;;;2.60;;
3095;SDS011;1558;42.700;23.360;2023-10-09T00:23:39;8.60;;;3.37;;
3095;SDS011;1558;42.700;23.360;2023-10-09T00:26:08;7.07;;;3.10;;
3095;SDS011;1558;42.700;23.360;2023-10-09T00:28:38;6.80;;;2.73;;
3095;SDS011;1558;42.700;23.360;2023-10-09T00:31:11;9.20;;;3.33;;
3095;SDS011;1558;42.700;23.360;2023-10-09T00:33:43;9.00;;;3.03;;
3095;SDS011;1558;42.700;23.360;2023-10-09T00:36:11;6.07;;;2.63;;
3095;SDS011;1558;42.700;23.360;2023-10-09T00:38:45;6.07;;;2.50;;
3095;SDS011;1558;42.700;23.360;2023-10-09T00:41:16;6.50;;;2.60;;
3095;SDS011;1558;42.700;23.360;2023-10-09T00:43:48;6.83;;;2.77;;
3095;SDS011;1558;42.700;23.360;2023-10-09T00:46:20;5.33;;;2.50;;
3095;SDS011;1558;42.700;23.360;2023-10-09T00:48:53;8.77;;;2.80;;
3095;SDS011;1558;42.700;23.360;2023-10-09T00:51:24;6.73;;;2.63;;
3095;SDS011;1558;42.700;23.360;2023-10-09T00:53:54;4.20;;;2.40;;
3095;SDS011;1558;42.700;23.360;2023-10-09T00:56:33;4.03;;;2.50;;
3095;SDS011;1558;42.700;23.360;2023-10-09T00:59:10;6.27;;;2.37;;
3095;SDS011;1558;42.700;23.360;2023-10-09T01:01:43;6.07;;;2.30;;
3095;SDS011;1558;42.700;23.360;2023-10-09T01:04:23;8.80;;;2.70;;
3095;SDS011;1558;42.700;23.360;2023-10-09T01:06:55;5.73;;;2.40;;
3095;SDS011;1558;42.700;23.360;2023-10-09T01:09:35;5.83;;;2.33;;
3095;SDS011;1558;42.700;23.360;2023-10-09T01:12:04;3.87;;;2.07;;
3095;SDS011;1558;42.700;23.360;2023-10-09T01:14:33;5.60;;;2.40;;
3095;SDS011;1558;42.700;23.360;2023-10-09T01:17:05;7.47;;;2.63;;
3095;SDS011;1558;42.700;23.360;2023-10-09T01:19:55;4.90;;;2.30;;
3095;SDS011;1558;42.700;23.360;2023-10-09T01:22:30;4.10;;;2.47;;
3095;SDS011;1558;42.700;23.360;2023-10-09T01:24:59;6.13;;;2.57;;
3095;SDS011;1558;42.700;23.360;2023-10-09T01:27:29;4.63;;;2.30;;
3095;SDS011;1558;42.700;23.360;2023-10-09T01:29:59;5.90;;;2.33;;
3095;SDS011;1558;42.700;23.360;2023-10-09T01:32:27;7.60;;;2.80;;
3095;SDS011;1558;42.700;23.360;2023-10-09T01:34:56;2.87;;;2.30;;
3095;SDS011;1558;42.700;23.360;2023-10-09T01:37:24;3.70;;;2.33;;
3095;SDS011;1558;42.700;23.360;2023-10-09T01:39:55;4.53;;;2.50;;
3095;SDS011;1558;42.700;23.360;2023-10-09T01:42:27;4.33;;;2.10;;
3095;SDS011;1558;42.700;23.360;2023-10-09T01:45:01;5.33;;;2.87;;
3095;SDS011;1558;42.700;23.360;2023-10-09T01:47:38;10.60;;;2.60;;
3095;SDS011;1558;42.700;23.360;2023-10-09T01:50:07;3.60;;;2.07;;
3095;SDS011;1558;42.700;23.360;2023-10-09T01:52:47;7.13;;;2.37;;
3095;SDS011;1558;42.700;23.360;2023-10-09T01:55:16;5.07;;;2.37;;
3095;SDS011;1558;42.700;23.360;2023-10-09T01:57:56;5.47;;;2.13;;
3095;SDS011;1558;42.700;23.360;2023-10-09T02:00:32;6.10;;;2.43;;
3095;SDS011;1558;42.700;23.360;2023-10-09T02:03:09;4.17;;;2.47;;
3095;SDS011;1558;42.700;23.360;2023-10-09T02:05:41;4.30;;;2.63;;
3095;SDS011;1558;42.700;23.360;2023-10-09T02:08:09;4.70;;;2.30;;
3095;SDS011;1558;42.700;23.360;2023-10-09T02:10:39;4.33;;;2.00;;
3095;SDS011;1558;42.700;23.360;2023-10-09T02:13:12;6.63;;;2.30;;
3095;SDS011;1558;42.700;23.360;2023-10-09T02:15:43;3.40;;;2.30;;
3095;SDS011;1558;42.700;23.360;2023-10-09T02:18:25;4.63;;;2.40;;
3095;SDS011;1558;42.700;23.360;2023-10-09T02:21:07;5.40;;;2.50;;
3095;SDS011;1558;42.700;23.360;2023-10-09T02:23:42;4.17;;;2.13;;
3095;SDS011;1558;42.700;23.360;2023-10-09T02:26:17;4.37;;;2.10;;
3095;SDS011;1558;42.700;23.360;2023-10-09T02:28:53;3.97;;;2.20;;
3095;SDS011;1558;42.700;23.360;2023-10-09T02:31:26;6.40;;;2.37;;
3095;SDS011;1558;42.700;23.360;2023-10-09T02:34:03;3.30;;;2.27;;
3095;SDS011;1558;42.700;23.360;2023-10-09T02:36:39;5.33;;;2.30;;
3095;SDS011;1558;42.700;23.360;2023-10-09T02:39:09;5.80;;;2.53;;
3095;SDS011;1558;42.700;23.360;2023-10-09T02:41:50;6.00;;;2.03;;
3095;SDS011;1558;42.700;23.360;2023-10-09T02:44:22;3.20;;;2.20;;
3095;SDS011;1558;42.700;23.360;2023-10-09T02:46:57;5.50;;;2.00;;
3095;SDS011;1558;42.700;23.360;2023-10-09T02:49:25;8.23;;;2.30;;
3095;SDS011;1558;42.700;23.360;2023-10-09T02:51:54;5.73;;;2.10;;
3095;SDS011;1558;42.700;23.360;2023-10-09T02:54:23;6.77;;;2.17;;
3095;SDS011;1558;42.700;23.360;2023-10-09T02:57:02;3.70;;;1.80;;
3095;SDS011;1558;42.700;23.360;2023-10-09T02:59:35;5.13;;;2.20;;
3095;SDS011;1558;42.700;23.360;2023-10-09T03:02:12;4.40;;;1.90;;
3095;SDS011;1558;42.700;23.360;2023-10-09T03:04:40;4.50;;;2.07;;
3095;SDS011;1558;42.700;23.360;2023-10-09T03:07:08;7.97;;;1.80;;
3095;SDS011;1558;42.700;23.360;2023-10-09T03:09:37;5.90;;;1.87;;
3095;SDS011;1558;42.700;23.360;2023-10-09T03:12:07;6.00;;;1.97;;
3095;SDS011;1558;42.700;23.360;2023-10-09T03:14:40;2.33;;;1.90;;
3095;SDS011;1558;42.700;23.360;2023-10-09T03:17:09;2.83;;;1.70;;
3095;SDS011;1558;42.700;23.360;2023-10-09T03:19:39;4.93;;;1.90;;
3095;SDS011;1558;42.700;23.360;2023-10-09T03:22:10;2.97;;;1.80;;
3095;SDS011;1558;42.700;23.360;2023-10-09T03:24:39;3.93;;;1.70;;
3095;SDS011;1558;42.700;23.360;2023-10-09T03:27:12;3.47;;;2.17;;
3095;SDS011;1558;42.700;23.360;2023-10-09T03:29:43;2.47;;;1.93;;
3095;SDS011;1558;42.700;23.360;2023-10-09T03:32:15;4.33;;;1.90;;
3095;SDS011;1558;42.700;23.360;2023-10-09T03:34:46;5.63;;;1.70;;
3095;SDS011;1558;42.700;23.360;2023-10-09T03:37:16;2.90;;;1.60;;
3095;SDS011;1558;42.700;23.360;2023-10-09T03:39:49;3.43;;;1.50;;
3095;SDS011;1558;42.700;23.360;2023-10-09T03:42:21;1.93;;;1.43;;
3095;SDS011;1558;42.700;23.360;2023-10-09T03:44:52;2.90;;;1.47;;
3095;SDS011;1558;42.700;23.360;2023-10-09T03:47:24;3.20;;;1.70;;
3095;SDS011;1558;42.700;23.360;2023-10-09T03:49:54;3.40;;;2.10;;
3095;SDS011;1558;42.700;23.360;2023-10-09T03:52:28;3.00;;;2.20;;
3095;SDS011;1558;42.700;23.360;2023-10-09T03:54:57;3.27;;;1.60;;
3095;SDS011;1558;42.700;23.360;2023-10-09T03:57:36;2.97;;;1.60;;
3095;SDS011;1558;42.700;23.360;2023-10-09T04:00:07;3.47;;;2.17;;
3095;SDS011;1558;42.700;23.360;2023-10-09T04:02:40;2.57;;;1.93;;
3095;SDS011;1558;42.700;23.360;2023-10-09T04:05:08;8.43;;;2.07;;
3095;SDS011;1558;42.700;23.360;2023-10-09T04:07:36;2.30;;;2.10;;
3095;SDS011;1558;42.700;23.360;2023-10-09T04:10:05;7.27;;;1.90;;
3095;SDS011;1558;42.700;23.360;2023-10-09T04:12:56;4.60;;;2.10;;
3095;SDS011;1558;42.700;23.360;2023-10-09T04:15:26;2.57;;;2.10;;
3095;SDS011;1558;42.700;23.360;2023-10-09T04:17:57;3.60;;;2.27;;
3095;SDS011;1558;42.700;23.360;2023-10-09T04:20:25;6.20;;;3.40;;
3095;SDS011;1558;42.700;23.360;2023-10-09T04:23:07;3.90;;;2.40;;
3095;SDS011;1558;42.700;23.360;2023-10-09T04:25:35;4.03;;;2.73;;
3095;SDS011;1558;42.700;23.360;2023-10-09T04:28:11;3.93;;;2.33;;
3095;SDS011;1558;42.700;23.360;2023-10-09T04:30:48;2.53;;;1.97;;
3095;SDS011;1558;42.700;23.360;2023-10-09T04:33:22;3.10;;;2.20;;
3095;SDS011;1558;42.700;23.360;2023-10-09T04:36:02;4.27;;;2.13;;
3095;SDS011;1558;42.700;23.360;2023-10-09T04:38:43;7.00;;;2.20;;
3095;SDS011;1558;42.700;23.360;2023-10-09T04:41:22;3.77;;;2.33;;
3095;SDS011;1558;42.700;23.360;2023-10-09T04:43:59;5.07;;;2.10;;
3095;SDS011;1558;42.700;23.360;2023-10-09T04:46:44;4.97;;;2.13;;
3095;SDS011;1558;42.700;23.360;2023-10-09T04:49:32;6.23;;;2.20;;
3095;SDS011;1558;42.700;23.360;2023-10-09T04:52:16;7.53;;;2.97;;
3095;SDS011;1558;42.700;23.360;2023-10-09T04:55:17;4.00;;;2.10;;
3095;SDS011;1558;42.700;23.360;2023-10-09T04:57:47;2.40;;;1.83;;
3095;SDS011;1558;42.700;23.360;2023-10-09T05:00:29;5.77;;;2.40;;
3095;SDS011;1558;42.700;23.360;2023-10-09T05:03:29;4.53;;;2.20;;
3095;SDS011;1558;42.700;23.360;2023-10-09T05:06:09;7.10;;;2.00;;
3095;SDS011;1558;42.700;23.360;2023-10-09T05:09:11;8.07;;;2.80;;
3095;SDS011;1558;42.700;23.360;2023-10-09T05:11:42;5.17;;;2.20;;
3095;SDS011;1558;42.700;23.360;2023-10-09T05:14:36;3.20;;;2.10;;
3095;SDS011;1558;42.700;23.360;2023-10-09T05:17:06;3.20;;;1.77;;
3095;SDS011;1558;42.700;23.360;2023-10-09T05:19:44;4.00;;;2.37;;
3095;SDS011;1558;42.700;23.360;2023-10-09T05:22:45;7.63;;;2.20;;
3095;SDS011;1558;42.700;23.360;2023-10-09T05:25:24;3.80;;;2.07;;
3095;SDS011;1558;42.700;23.360;2023-10-09T05:28:06;4.43;;;2.33;;
3095;SDS011;1558;42.700;23.360;2023-10-09T05:30:48;4.63;;;2.30;;
3095;SDS011;1558;42.700;23.360;2023-10-09T05:33:21;8.50;;;2.40;;
3095;SDS011;1558;42.700;23.360;2023-10-09T05:36:02;4.13;;;2.27;;
3095;SDS011;1558;42.700;23.360;2023-10-09T05:38:58;5.70;;;2.70;;
3095;SDS011;1558;42.700;23.360;2023-10-09T05:41:26;4.90;;;2.87;;
3095;SDS011;1558;42.700;23.360;2023-10-09T05:44:11;2.70;;;2.03;;
3095;SDS011;1558;42.700;23.360;2023-10-09T05:46:57;4.53;;;2.03;;
3095;SDS011;1558;42.700;23.360;2023-10-09T05:49:42;3.40;;;1.93;;
3095;SDS011;1558;42.700;23.360;2023-10-09T05:52:30;3.30;;;2.07;;
3095;SDS011;1558;42.700;23.360;2023-10-09T05:55:27;5.93;;;2.00;;
3095;SDS011;1558;42.700;23.360;2023-10-09T05:58:14;4.67;;;2.10;;
3095;SDS011;1558;42.700;23.360;2023-10-09T06:01:00;4.72;;;2.00;;
3095;SDS011;1558;42.700;23.360;2023-10-09T06:03:46;4.63;;;1.83;;
3095;SDS011;1558;42.700;23.360;2023-10-09T06:06:21;3.35;;;1.65;;
3095;SDS011;1558;42.700;23.360;2023-10-09T06:09:11;5.10;;;2.10;;
3095;SDS011;1558;42.700;23.360;2023-10-09T06:11:57;3.58;;;2.30;;
3095;SDS011;1558;42.700;23.360;2023-10-09T06:14:39;4.20;;;2.40;;
3095;SDS011;1558;42.700;23.360;2023-10-09T06:17:24;6.65;;;2.40;;
3095;SDS011;1558;42.700;23.360;2023-10-09T06:20:10;5.15;;;2.13;;
3095;SDS011;1558;42.700;23.360;2023-10-09T06:22:52;8.07;;;1.90;;
3095;SDS011;1558;42.700;23.360;2023-10-09T06:25:44;3.40;;;1.70;;
3095;SDS011;1558;42.700;23.360;2023-10-09T06:28:18;3.92;;;1.88;;
3095;SDS011;1558;42.700;23.360;2023-10-09T06:31:00;4.45;;;2.05;;
3095;SDS011;1558;42.700;23.360;2023-10-09T06:33:50;3.42;;;1.77;;
3095;SDS011;1558;42.700;23.360;2023-10-09T06:36:42;6.20;;;2.60;;
3095;SDS011;1558;42.700;23.360;2023-10-09T06:39:19;7.55;;;2.33;;
3095;SDS011;1558;42.700;23.360;2023-10-09T06:42:18;4.88;;;1.92;;
3095;SDS011;1558;42.700;23.360;2023-10-09T06:45:00;6.05;;;1.75;;
3095;SDS011;1558;42.700;23.360;2023-10-09T06:47:42;4.22;;;1.98;;
3095;SDS011;1558;42.700;23.360;2023-10-09T06:50:19;6.03;;;2.25;;
3095;SDS011;1558;42.700;23.360;2023-10-09T06:53:09;3.92;;;2.08;;
3095;SDS011;1558;42.700;23.360;2023-10-09T06:55:54;9.80;;;2.45;;
3095;SDS011;1558;42.700;23.360;2023-10-09T06:58:33;6.25;;;2.65;;
3095;SDS011;1558;42.700;23.360;2023-10-09T07:01:10;6.55;;;3.05;;
3095;SDS011;1558;42.700;23.360;2023-10-09T07:03:46;6.32;;;2.83;;
3095;SDS011;1558;42.700;23.360;2023-10-09T07:06:20;3.97;;;2.00;;
3095;SDS011;1558;42.700;23.360;2023-10-09T07:08:52;3.20;;;1.67;;
3095;SDS011;1558;42.700;23.360;2023-10-09T07:11:43;6.03;;;2.38;;
3095;SDS011;1558;42.700;23.360;2023-10-09T07:14:31;3.65;;;2.60;;
3095;SDS011;1558;42.700;23.360;2023-10-09T07:17:16;5.15;;;2.30;;
3095;SDS011;1558;42.700;23.360;2023-10-09T07:19:50;6.63;;;2.30;;
3095;SDS011;1558;42.700;23.360;2023-10-09T07:22:42;3.75;;;2.60;;
3095;SDS011;1558;42.700;23.360;2023-10-09T07:25:40;4.72;;;2.55;;
3095;SDS011;1558;42.700;23.360;2023-10-09T07:28:16;6.07;;;2.60;;
3095;SDS011;1558;42.700;23.360;2023-10-09T07:31:05;2.35;;;2.15;;
3095;SDS011;1558;42.700;23.360;2023-10-09T07:33:36;4.20;;;2.50;;
3095;SDS011;1558;42.700;23.360;2023-10-09T07:36:24;4.45;;;2.10;;
3095;SDS011;1558;42.700;23.360;2023-10-09T07:39:13;4.88;;;2.63;;
3095;SDS011;1558;42.700;23.360;2023-10-09T07:41:42;7.68;;;2.47;;
3095;SDS011;1558;42.700;23.360;2023-10-09T07:44:23;3.67;;;2.25;;
3095;SDS011;1558;42.700;23.360;2023-10-09T07:47:10;8.20;;;2.17;;
3095;SDS011;1558;42.700;23.360;2023-10-09T07:49:44;3.85;;;2.50;;
3095;SDS011;1558;42.700;23.360;2023-10-09T07:52:19;5.72;;;2.85;;
3095;SDS011;1558;42.700;23.360;2023-10-09T07:54:49;5.22;;;2.78;;
3095;SDS011;1558;42.700;23.360;2023-10-09T07:57:20;3.50;;;3.10;;
3095;SDS011;1558;42.700;23.360;2023-10-09T07:59:56;4.20;;;2.10;;
3095;SDS011;1558;42.700;23.360;2023-10-09T08:02:40;2.50;;;2.30;;
3095;SDS011;1558;42.700;23.360;2023-10-09T08:05:09;6.25;;;2.47;;
3095;SDS011;1558;42.700;23.360;2023-10-09T08:07:46;3.90;;;2.28;;
3095;SDS011;1558;42.700;23.360;2023-10-09T08:10:38;2.25;;;1.90;;
3095;SDS011;1558;42.700;23.360;2023-10-09T08:13:24;8.82;;;2.70;;
3095;SDS011;1558;42.700;23.360;2023-10-09T08:16:13;6.80;;;2.90;;
3095;SDS011;1558;42.700;23.360;2023-10-09T08:18:51;6.45;;;2.50;;
3095;SDS011;1558;42.700;23.360;2023-10-09T08:21:19;3.35;;;2.38;;
3095;SDS011;1558;42.700;23.360;2023-10-09T08:24:07;4.18;;;2.30;;
3095;SDS011;1558;42.700;23.360;2023-10-09T08:26:55;6.75;;;2.40;;
3095;SDS011;1558;42.700;23.360;2023-10-09T08:29:37;2.83;;;2.28;;
3095;SDS011;1558;42.700;23.360;2023-10-09T08:32:12;5.75;;;2.50;;
3095;SDS011;1558;42.700;23.360;2023-10-09T08:35:06;3.75;;;2.30;;
3095;SDS011;1558;42.700;23.360;2023-10-09T08:37:55;3.97;;;2.28;;
3095;SDS011;1558;42.700;23.360;2023-10-09T08:40:29;3.65;;;2.50;;
3095;SDS011;1558;42.700;23.360;2023-10-09T08:43:01;4.60;;;2.28;;
3095;SDS011;1558;42.700;23.360;2023-10-09T08:45:37;7.93;;;2.83;;
3095;SDS011;1558;42.700;23.360;2023-10-09T08:48:07;5.55;;;2.55;;
3095;SDS011;1558;42.700;23.360;2023-10-09T08:50:44;2.67;;;2.03;;
3095;SDS011;1558;42.700;23.360;2023-10-09T08:53:13;2.97;;;2.38;;
3095;SDS011;1558;42.700;23.360;2023-10-09T08:55:42;2.20;;;1.70;;
3095;SDS011;1558;42.700;23.360;2023-10-09T08:58:14;2.85;;;2.05;;
3095;SDS011;1558;42.700;23.360;2023-10-09T09:00:47;5.03;;;2.10;;
3095;SDS011;1558;42.700;23.360;2023-10-09T09:03:17;8.40;;;2.50;;
3095;SDS011;1558;42.700;23.360;2023-10-09T09:05:58;3.38;;;2.00;;
3095;SDS011;1558;42.700;23.360;2023-10-09T09:08:29;3.60;;;2.10;;
3095;SDS011;1558;42.700;23.360;2023-10-09T09:10:59;6.28;;;2.17;;
3095;SDS011;1558;42.700;23.360;2023-10-09T09:13:39;5.65;;;2.10;;
3095;SDS011;1558;42.700;23.360;2023-10-09T09:16:15;3.97;;;2.60;;
3095;SDS011;1558;42.700;23.360;2023-10-09T09:18:50;6.70;;;2.33;;
3095;SDS011;1558;42.700;23.360;2023-10-09T09:21:28;6.10;;;2.17;;
3095;SDS011;1558;42.700;23.360;2023-10-09T09:24:04;2.65;;;2.42;;
3095;SDS011;1558;42.700;23.360;2023-10-09T09:26:42;3.10;;;2.03;;
3095;SDS011;1558;42.700;23.360;2023-10-09T09:29:14;6.45;;;2.65;;
3095;SDS011;1558;42.700;23.360;2023-10-09T09:31:54;4.75;;;2.30;;
3095;SDS011;1558;42.700;23.360;2023-10-09T09:34:24;2.30;;;2.00;;
3095;SDS011;1558;42.700;23.360;2023-10-09T09:36:57;6.25;;;2.22;;
3095;SDS011;1558;42.700;23.360;2023-10-09T09:39:30;8.20;;;2.80;;
3095;SDS011;1558;42.700;23.360;2023-10-09T09:42:14;5.95;;;2.10;;
3095;SDS011;1558;42.700;23.360;2023-10-09T09:44:45;4.55;;;2.20;;
3095;SDS011;1558;42.700;23.360;2023-10-09T09:47:13;3.72;;;2.28;;
3095;SDS011;1558;42.700;23.360;2023-10-09T09:49:51;2.70;;;2.28;;
3095;SDS011;1558;42.700;23.360;2023-10-09T09:52:29;5.15;;;2.20;;
3095;SDS011;1558;42.700;23.360;2023-10-09T09:55:06;5.82;;;2.20;;
3095;SDS011;1558;42.700;23.360;2023-10-09T09:57:43;4.28;;;2.33;;
3095;SDS011;1558;42.700;23.360;2023-10-09T10:00:19;3.85;;;2.20;;
3095;SDS011;1558;42.700;23.360;2023-10-09T10:02:59;3.22;;;2.03;;
3095;SDS011;1558;42.700;23.360;2023-10-09T10:05:33;3.28;;;2.40;;
3095;SDS011;1558;42.700;23.360;2023-10-09T10:08:05;4.80;;;2.70;;
3095;SDS011;1558;42.700;23.360;2023-10-09T10:10:39;3.85;;;2.15;;
3095;SDS011;1558;42.700;23.360;2023-10-09T10:13:16;3.80;;;2.22;;
3095;SDS011;1558;42.700;23.360;2023-10-09T10:15:58;3.45;;;2.22;;
3095;SDS011;1558;42.700;23.360;2023-10-09T10:18:53;4.15;;;2.13;;
3095;SDS011;1558;42.700;23.360;2023-10-09T10:21:33;5.43;;;2.80;;
3095;SDS011;1558;42.700;23.360;2023-10-09T10:27:21;2.88;;;2.03;;
3095;SDS011;1558;42.700;23.360;2023-10-09T10:32:57;13.50;;;6.97;;
3095;SDS011;1558;42.700;23.360;2023-10-09T10:35:36;6.30;;;2.90;;
3095;SDS011;1558;42.700;23.360;2023-10-09T10:38:24;6.18;;;2.80;;
3095;SDS011;1558;42.700;23.360;2023-10-09T10:41:22;10.07;;;3.40;;
3095;SDS011;1558;42.700;23.360;2023-10-09T10:43:51;8.35;;;2.78;;
3095;SDS011;1558;42.700;23.360;2023-10-09T10:46:28;4.50;;;2.55;;
3095;SDS011;1558;42.700;23.360;2023-10-09T10:49:05;5.10;;;2.80;;
3095;SDS011;1558;42.700;23.360;2023-10-09T10:51:43;5.25;;;2.80;;
3095;SDS011;1558;42.700;23.360;2023-10-09T10:54:22;3.78;;;2.40;;
3095;SDS011;1558;42.700;23.360;2023-10-09T10:57:17;2.53;;;2.30;;
3095;SDS011;1558;42.700;23.360;2023-10-09T10:59:46;7.15;;;2.97;;
3095;SDS011;1558;42.700;23.360;2023-10-09T11:02:17;3.80;;;2.50;;
3095;SDS011;1558;42.700;23.360;2023-10-09T11:04:55;6.00;;;2.95;;
3095;SDS011;1558;42.700;23.360;2023-10-09T11:07:25;3.35;;;3.05;;
3095;SDS011;1558;42.700;23.360;2023-10-09T11:09:54;3.03;;;2.50;;
3095;SDS011;1558;42.700;23.360;2023-10-09T11:12:45;6.70;;;2.78;;
3095;SDS011;1558;42.700;23.360;2023-10-09T11:15:40;3.85;;;3.10;;
3095;SDS011;1558;42.700;23.360;2023-10-09T11:18:13;4.90;;;3.67;;
3095;SDS011;1558;42.700;23.360;2023-10-09T11:20:48;4.22;;;3.40;;
3095;SDS011;1558;42.700;23.360;2023-10-09T11:23:46;10.35;;;9.35;;
3095;SDS011;1558;42.700;23.360;2023-10-09T11:26:47;14.75;;;13.48;;
3095;SDS011;1558;42.700;23.360;2023-10-09T11:29:23;12.57;;;10.35;;
3095;SDS011;1558;42.700;23.360;2023-10-09T11:31:59;6.68;;;6.00;;
3095;SDS011;1558;42.700;23.360;2023-10-09T11:34:27;12.45;;;10.68;;
3095;SDS011;1558;42.700;23.360;2023-10-09T11:36:59;4.30;;;3.78;;
3095;SDS011;1558;42.700;23.360;2023-10-09T11:39:29;4.40;;;4.00;;
3095;SDS011;1558;42.700;23.360;2023-10-09T11:42:19;4.57;;;3.42;;
3095;SDS011;1558;42.700;23.360;2023-10-09T11:45:04;3.42;;;2.17;;
3095;SDS011;1558;42.700;23.360;2023-10-09T11:47:47;3.63;;;2.45;;
3095;SDS011;1558;42.700;23.360;2023-10-09T11:50:39;4.82;;;3.80;;
3095;SDS011;1558;42.700;23.360;2023-10-09T11:53:17;5.90;;;3.75;;
3095;SDS011;1558;42.700;23.360;2023-10-09T11:56:00;8.35;;;3.88;;
3095;SDS011;1558;42.700;23.360;2023-10-09T11:58:28;3.53;;;2.55;;
3095;SDS011;1558;42.700;23.360;2023-10-09T12:00:58;7.40;;;2.72;;
3095;SDS011;1558;42.700;23.360;2023-10-09T12:03:32;4.40;;;4.00;;
3095;SDS011;1558;42.700;23.360;2023-10-09T12:06:01;7.38;;;5.30;;
3095;SDS011;1558;42.700;23.360;2023-10-09T12:08:32;5.05;;;4.55;;
3095;SDS011;1558;42.700;23.360;2023-10-09T12:11:01;4.40;;;4.10;;
3095;SDS011;1558;42.700;23.360;2023-10-09T12:13:35;4.00;;;3.30;;
3095;SDS011;1558;42.700;23.360;2023-10-09T12:16:05;7.47;;;3.50;;
3095;SDS011;1558;42.700;23.360;2023-10-09T12:18:36;7.53;;;2.60;;
3095;SDS011;1558;42.700;23.360;2023-10-09T12:21:06;11.77;;;2.90;;
3095;SDS011;1558;42.700;23.360;2023-10-09T12:23:34;4.85;;;2.33;;
3095;SDS011;1558;42.700;23.360;2023-10-09T12:26:03;6.00;;;2.70;;
3095;SDS011;1558;42.700;23.360;2023-10-09T12:28:31;3.42;;;2.60;;
3095;SDS011;1558;42.700;23.360;2023-10-09T12:31:01;10.45;;;3.80;;
3095;SDS011;1558;42.700;23.360;2023-10-09T12:33:30;4.40;;;3.40;;
3095;SDS011;1558;42.700;23.360;2023-10-09T12:35:58;5.10;;;2.53;;
3095;SDS011;1558;42.700;23.360;2023-10-09T12:38:28;9.60;;;5.88;;
3095;SDS011;1558;42.700;23.360;2023-10-09T12:41:03;12.20;;;2.65;;
3095;SDS011;1558;42.700;23.360;2023-10-09T12:43:35;5.75;;;2.67;;
3095;SDS011;1558;42.700;23.360;2023-10-09T12:46:09;4.05;;;2.28;;
3095;SDS011;1558;42.700;23.360;2023-10-09T12:48:44;4.82;;;2.47;;
3095;SDS011;1558;42.700;23.360;2023-10-09T12:51:13;10.75;;;3.05;;
3095;SDS011;1558;42.700;23.360;2023-10-09T12:53:43;3.47;;;2.40;;
3095;SDS011;1558;42.700;23.360;2023-10-09T12:56:12;3.70;;;2.20;;
3095;SDS011;1558;42.700;23.360;2023-10-09T12:58:41;2.80;;;2.42;;
3095;SDS011;1558;42.700;23.360;2023-10-09T13:01:19;14.75;;;3.10;;
3095;SDS011;1558;42.700;23.360;2023-10-09T13:03:49;8.13;;;2.00;;
3095;SDS011;1558;42.700;23.360;2023-10-09T13:06:18;1.90;;;1.80;;
3095;SDS011;1558;42.700;23.360;2023-10-09T13:08:51;5.68;;;2.70;;
3095;SDS011;1558;42.700;23.360;2023-10-09T13:11:19;4.57;;;2.03;;
3095;SDS011;1558;42.700;23.360;2023-10-09T13:13:54;8.48;;;2.47;;
3095;SDS011;1558;42.700;23.360;2023-10-09T13:16:29;5.78;;;2.33;;
3095;SDS011;1558;42.700;23.360;2023-10-09T13:18:59;6.18;;;2.25;;
3095;SDS011;1558;42.700;23.360;2023-10-09T13:21:35;3.75;;;3.25;;
3095;SDS011;1558;42.700;23.360;2023-10-09T13:24:05;3.17;;;2.88;;
3095;SDS011;1558;42.700;23.360;2023-10-09T13:26:39;4.30;;;2.08;;
3095;SDS011;1558;42.700;23.360;2023-10-09T13:29:11;6.05;;;3.75;;
3095;SDS011;1558;42.700;23.360;2023-10-09T13:31:49;5.85;;;2.70;;
3095;SDS011;1558;42.700;23.360;2023-10-09T13:34:20;5.85;;;2.70;;
3095;SDS011;1558;42.700;23.360;2023-10-09T13:36:52;2.45;;;2.00;;
3095;SDS011;1558;42.700;23.360;2023-10-09T13:39:21;5.30;;;2.50;;
3095;SDS011;1558;42.700;23.360;2023-10-09T13:41:51;7.60;;;3.00;;
3095;SDS011;1558;42.700;23.360;2023-10-09T13:44:27;3.22;;;2.17;;
3095;SDS011;1558;42.700;23.360;2023-10-09T13:46:56;5.93;;;2.88;;
3095;SDS011;1558;42.700;23.360;2023-10-09T13:49:26;3.38;;;2.17;;
3095;SDS011;1558;42.700;23.360;2023-10-09T13:51:57;5.70;;;2.60;;
3095;SDS011;1558;42.700;23.360;2023-10-09T13:54:28;5.13;;;2.38;;
3095;SDS011;1558;42.700;23.360;2023-10-09T13:57:06;4.85;;;2.25;;
3095;SDS011;1558;42.700;23.360;2023-10-09T13:59:37;6.15;;;3.38;;
3095;SDS011;1558;42.700;23.360;2023-10-09T14:02:11;4.55;;;2.45;;
3095;SDS011;1558;42.700;23.360;2023-10-09T14:04:46;4.55;;;2.40;;
3095;SDS011;1558;42.700;23.360;2023-10-09T14:07:15;2.83;;;2.30;;
3095;SDS011;1558;42.700;23.360;2023-10-09T14:09:44;4.72;;;2.58;;
3095;SDS011;1558;42.700;23.360;2023-10-09T14:12:22;4.05;;;2.33;;
3095;SDS011;1558;42.700;23.360;2023-10-09T14:14:51;3.58;;;2.40;;
3095;SDS011;1558;42.700;23.360;2023-10-09T14:17:21;12.05;;;6.35;;
3095;SDS011;1558;42.700;23.360;2023-10-09T14:19:54;4.07;;;2.85;;
3095;SDS011;1558;42.700;23.360;2023-10-09T14:22:44;7.10;;;2.85;;
3095;SDS011;1558;42.700;23.360;2023-10-09T14:25:19;5.32;;;2.53;;
3095;SDS011;1558;42.700;23.360;2023-10-09T14:27:48;4.22;;;2.50;;
3095;SDS011;1558;42.700;23.360;2023-10-09T14:30:19;6.22;;;2.90;;
3095;SDS011;1558;42.700;23.360;2023-10-09T14:32:57;6.50;;;2.97;;
3095;SDS011;1558;42.700;23.360;2023-10-09T14:35:30;6.95;;;3.20;;
3095;SDS011;1558;42.700;23.360;2023-10-09T14:38:00;6.15;;;2.95;;
3095;SDS011;1558;42.700;23.360;2023-10-09T14:40:31;4.45;;;2.83;;
3095;SDS011;1558;42.700;23.360;2023-10-09T14:43:00;6.20;;;3.35;;
3095;SDS011;1558;42.700;23.360;2023-10-09T14:45:29;5.40;;;3.47;;
3095;SDS011;1558;42.700;23.360;2023-10-09T14:47:58;5.28;;;3.20;;
3095;SDS011;1558;42.700;23.360;2023-10-09T14:50:27;4.28;;;2.90;;
3095;SDS011;1558;42.700;23.360;2023-10-09T14:52:56;4.93;;;3.33;;
3095;SDS011;1558;42.700;23.360;2023-10-09T14:55:27;7.25;;;3.10;;
3095;SDS011;1558;42.700;23.360;2023-10-09T14:57:58;6.00;;;3.22;;
3095;SDS011;1558;42.700;23.360;2023-10-09T15:00:26;8.93;;;3.42;;
3095;SDS011;1558;42.700;23.360;2023-10-09T15:02:54;9.38;;;3.58;;
3095;SDS011;1558;42.700;23.360;2023-10-09T15:05:22;5.70;;;3.35;;
3095;SDS011;1558;42.700;23.360;2023-10-09T15:07:52;7.78;;;4.90;;
3095;SDS011;1558;42.700;23.360;2023-10-09T15:10:21;9.23;;;4.45;;
3095;SDS011;1558;42.700;23.360;2023-10-09T15:12:50;9.77;;;4.90;;
3095;SDS011;1558;42.700;23.360;2023-10-09T15:15:18;11.52;;;4.35;;
3095;SDS011;1558;42.700;23.360;2023-10-09T15:17:52;5.15;;;4.10;;
3095;SDS011;1558;42.700;23.360;2023-10-09T15:20:20;7.40;;;4.72;;
3095;SDS011;1558;42.700;23.360;2023-10-09T15:22:48;8.73;;;4.38;;
3095;SDS011;1558;42.700;23.360;2023-10-09T15:25:16;6.22;;;4.10;;
3095;SDS011;1558;42.700;23.360;2023-10-09T15:27:46;6.05;;;3.65;;
3095;SDS011;1558;42.700;23.360;2023-10-09T15:30:14;6.13;;;3.83;;
3095;SDS011;1558;42.700;23.360;2023-10-09T15:32:45;8.55;;;3.90;;
3095;SDS011;1558;42.700;23.360;2023-10-09T15:35:15;10.25;;;4.75;;
3095;SDS011;1558;42.700;23.360;2023-10-09T15:37:45;8.93;;;4.20;;
3095;SDS011;1558;42.700;23.360;2023-10-09T15:40:13;5.85;;;3.95;;
3095;SDS011;1558;42.700;23.360;2023-10-09T15:42:46;6.78;;;3.78;;
3095;SDS011;1558;42.700;23.360;2023-10-09T15:45:17;7.30;;;3.78;;
3095;SDS011;1558;42.700;23.360;2023-10-09T15:47:45;7.35;;;3.85;;
3095;SDS011;1558;42.700;23.360;2023-10-09T15:50:13;6.57;;;3.55;;
3095;SDS011;1558;42.700;23.360;2023-10-09T15:52:41;10.23;;;4.18;;
3095;SDS011;1558;42.700;23.360;2023-10-09T15:55:10;7.22;;;4.65;;
3095;SDS011;1558;42.700;23.360;2023-10-09T15:57:40;6.57;;;4.60;;